createdAt,value
2018-11-05T00:01:17.487Z,28.67
2018-11-05T00:03:45.562Z,25.07
2018-11-05T00:06:13.369Z,22.80
2018-11-05T00:08:41.005Z,30.20
2018-11-05T00:11:08.847Z,25.17
2018-11-05T00:13:36.720Z,27.50
2018-11-05T00:16:04.494Z,26.87
2018-11-05T00:18:32.319Z,23.60
2018-11-05T00:21:00.377Z,24.70
2018-11-05T00:23:28.058Z,22.20
2018-11-05T00:25:56.070Z,22.20
2018-11-05T00:28:23.901Z,30.40
2018-11-05T00:30:51.611Z,26.37
2018-11-05T00:33:19.301Z,27.23
2018-11-05T00:35:46.988Z,27.17
2018-11-05T00:38:14.709Z,23.83
2018-11-05T00:40:42.366Z,24.00
2018-11-05T00:43:10.326Z,24.60
2018-11-05T00:45:38.186Z,30.57
2018-11-05T00:48:06.110Z,21.60
2018-11-05T00:50:34.238Z,22.57
2018-11-05T00:53:02.423Z,23.17
2018-11-05T00:55:30.561Z,21.10
2018-11-05T00:57:58.373Z,21.70
2018-11-05T01:00:26.361Z,20.90
2018-11-05T01:02:54.221Z,20.63
2018-11-05T01:05:22.310Z,24.93
2018-11-05T01:07:50.281Z,25.63
2018-11-05T01:10:18.394Z,21.27
2018-11-05T01:12:46.462Z,26.30
2018-11-05T01:15:15.500Z,22.87
2018-11-05T01:17:43.181Z,18.93
2018-11-05T01:20:12.355Z,22.83
2018-11-05T01:22:40.441Z,24.17
2018-11-05T01:25:08.287Z,23.97
2018-11-05T01:27:36.665Z,24.27
2018-11-05T01:30:07.096Z,24.73
2018-11-05T01:32:35.318Z,21.90
2018-11-05T01:35:04.152Z,25.40
2018-11-05T01:37:32.052Z,23.93
2018-11-05T01:39:59.852Z,24.40
2018-11-05T01:42:28.061Z,22.57
2018-11-05T01:44:56.055Z,25.00
2018-11-05T01:47:24.414Z,20.80
2018-11-05T01:49:52.505Z,17.73
2018-11-05T01:52:20.615Z,23.00
2018-11-05T01:54:48.517Z,22.10
2018-11-05T01:57:16.383Z,21.40
2018-11-05T01:59:44.082Z,19.67
2018-11-05T02:02:11.805Z,18.23
2018-11-05T02:04:39.591Z,22.30
2018-11-05T02:07:07.312Z,17.23
2018-11-05T02:09:35.152Z,20.17
2018-11-05T02:12:02.876Z,17.93
2018-11-05T02:14:30.594Z,16.40
2018-11-05T02:16:58.725Z,17.43
2018-11-05T02:19:26.669Z,17.87
2018-11-05T02:21:55.625Z,26.90
2018-11-05T02:24:23.888Z,18.40
2018-11-05T02:26:51.958Z,21.20
2018-11-05T02:29:19.996Z,16.80
2018-11-05T02:31:47.729Z,19.53
2018-11-05T02:34:15.941Z,17.80
2018-11-05T02:36:44.116Z,24.80
2018-11-05T02:39:12.521Z,24.63
2018-11-05T02:41:40.547Z,23.70
2018-11-05T02:44:08.550Z,19.53
2018-11-05T02:46:36.702Z,20.83
2018-11-05T02:49:04.569Z,20.53
2018-11-05T02:51:32.603Z,31.70
2018-11-05T02:54:00.636Z,42.63
2018-11-05T02:56:28.678Z,27.70
2018-11-05T02:58:56.849Z,23.20
2018-11-05T03:01:25.042Z,43.83
2018-11-05T03:03:52.894Z,32.13
2018-11-05T03:06:20.673Z,56.17
2018-11-05T03:08:48.751Z,28.23
2018-11-05T03:11:16.733Z,37.97
2018-11-05T03:13:44.508Z,30.23
2018-11-05T03:16:12.306Z,31.07
2018-11-05T03:18:40.298Z,30.10
2018-11-05T03:21:08.134Z,26.37
2018-11-05T03:23:35.924Z,25.63
2018-11-05T03:26:03.819Z,29.53
2018-11-05T03:28:32.030Z,28.27
2018-11-05T03:30:59.754Z,33.83
2018-11-05T03:33:27.645Z,33.47
2018-11-05T03:35:55.659Z,33.80
2018-11-05T03:38:23.818Z,36.23
2018-11-05T03:40:51.870Z,34.00
2018-11-05T03:43:19.808Z,38.00
2018-11-05T03:45:47.711Z,33.87
2018-11-05T03:48:15.810Z,36.53
2018-11-05T03:50:43.889Z,35.17
2018-11-05T03:53:11.864Z,31.70
2018-11-05T03:55:40.689Z,39.83
2018-11-05T03:58:08.838Z,40.00
2018-11-05T04:00:37.159Z,39.90
2018-11-05T04:03:05.368Z,46.40
2018-11-05T04:05:33.325Z,41.23
2018-11-05T04:08:01.034Z,32.47
2018-11-05T04:10:28.870Z,26.77
2018-11-05T04:12:56.958Z,30.27
2018-11-05T04:15:24.752Z,28.20
2018-11-05T04:17:52.618Z,42.23
2018-11-05T04:20:20.890Z,39.00
2018-11-05T04:22:48.948Z,27.60
2018-11-05T04:25:16.816Z,51.60
2018-11-05T04:27:44.890Z,28.33
2018-11-05T04:30:13.853Z,31.83
2018-11-05T04:32:42.282Z,50.27
2018-11-05T04:35:10.967Z,57.03
2018-11-05T04:37:38.971Z,29.80
2018-11-05T04:40:07.758Z,44.80
2018-11-05T04:42:41.761Z,68.40
2018-11-05T04:45:12.164Z,33.93
2018-11-05T04:47:40.661Z,32.13
2018-11-05T04:50:09.892Z,35.20
2018-11-05T04:52:38.357Z,53.23
2018-11-05T04:55:06.179Z,53.83
2018-11-05T04:57:34.239Z,31.67
2018-11-05T05:00:18.333Z,39.70
2018-11-05T05:02:46.445Z,38.03
2018-11-05T05:05:15.437Z,28.97
2018-11-05T05:07:43.569Z,60.80
2018-11-05T05:10:11.673Z,43.70
2018-11-05T05:12:40.699Z,37.10
2018-11-05T05:15:09.473Z,39.67
2018-11-05T05:17:38.266Z,35.60
2018-11-05T05:20:08.471Z,32.93
2018-11-05T05:22:36.342Z,30.10
2018-11-05T05:25:04.352Z,30.40
2018-11-05T05:27:32.283Z,46.40
2018-11-05T05:30:00.273Z,33.50
2018-11-05T05:32:28.295Z,31.23
2018-11-05T05:34:56.120Z,29.77
2018-11-05T05:37:24.037Z,33.50
2018-11-05T05:39:51.740Z,31.87
2018-11-05T05:42:19.407Z,35.90
2018-11-05T05:44:47.036Z,35.50
2018-11-05T05:47:14.903Z,40.50
2018-11-05T05:49:42.589Z,31.17
2018-11-05T05:52:10.309Z,34.63
2018-11-05T05:54:37.935Z,32.10
2018-11-05T05:57:05.585Z,27.10
2018-11-05T05:59:33.217Z,24.90
2018-11-05T06:02:00.834Z,33.83
2018-11-05T06:04:28.494Z,24.47
2018-11-05T06:06:56.246Z,26.80
2018-11-05T06:09:23.892Z,26.93
2018-11-05T06:11:51.504Z,29.93
2018-11-05T06:14:19.144Z,22.77
2018-11-05T06:16:46.725Z,33.70
2018-11-05T06:19:14.388Z,22.60
2018-11-05T06:21:42.083Z,24.77
2018-11-05T06:24:09.738Z,23.87
2018-11-05T06:26:37.400Z,27.87
2018-11-05T06:29:05.066Z,22.90
2018-11-05T06:31:32.742Z,50.07
2018-11-05T06:34:00.402Z,31.67
2018-11-05T06:36:28.011Z,21.90
2018-11-05T06:38:55.669Z,27.77
2018-11-05T06:41:23.394Z,25.20
2018-11-05T06:43:51.041Z,36.73
2018-11-05T06:46:18.725Z,27.37
2018-11-05T06:48:46.370Z,33.87
2018-11-05T06:51:14.081Z,34.23
2018-11-05T06:53:41.763Z,31.23
2018-11-05T06:56:09.378Z,35.40
2018-11-05T06:58:37.062Z,34.67
2018-11-05T07:01:05.055Z,30.87
2018-11-05T07:03:32.721Z,32.53
2018-11-05T07:06:00.589Z,26.30
2018-11-05T07:08:28.280Z,25.47
2018-11-05T07:10:55.989Z,20.20
2018-11-05T07:13:23.761Z,24.70
2018-11-05T07:15:51.406Z,34.93
2018-11-05T07:18:19.213Z,25.07
2018-11-05T07:20:46.786Z,30.47
2018-11-05T07:23:14.441Z,24.43
2018-11-05T07:25:42.090Z,31.00
2018-11-05T07:28:09.812Z,23.53
2018-11-05T07:30:37.601Z,21.80
2018-11-05T07:33:05.441Z,25.77
2018-11-05T07:35:33.386Z,26.30
2018-11-05T07:38:01.246Z,28.33
2018-11-05T07:40:28.924Z,37.37
2018-11-05T07:42:56.589Z,29.63
2018-11-05T07:45:24.462Z,23.33
2018-11-05T07:47:52.232Z,25.00
2018-11-05T07:50:20.838Z,31.70
2018-11-05T07:52:48.865Z,37.40
2018-11-05T07:55:17.599Z,23.67
2018-11-05T07:57:46.638Z,31.97
2018-11-05T08:00:20.773Z,29.50
2018-11-05T08:02:49.667Z,21.50
2018-11-05T08:05:18.562Z,32.03
2018-11-05T08:07:46.781Z,26.40
2018-11-05T08:10:14.562Z,22.07
2018-11-05T08:12:42.449Z,22.77
2018-11-05T08:15:12.772Z,21.43
2018-11-05T08:17:41.356Z,27.80
2018-11-05T08:20:09.494Z,25.33
2018-11-05T08:22:37.369Z,26.47
2018-11-05T08:25:05.264Z,30.97
2018-11-05T08:27:33.076Z,20.97
2018-11-05T08:30:00.850Z,24.80
2018-11-05T08:32:28.499Z,24.77
2018-11-05T08:34:56.218Z,30.93
2018-11-05T08:37:23.906Z,29.77
2018-11-05T08:39:51.581Z,21.50
2018-11-05T08:42:19.270Z,20.27
2018-11-05T08:44:46.982Z,27.03
2018-11-05T08:47:14.713Z,22.80
2018-11-05T08:49:42.871Z,21.70
2018-11-05T08:52:10.814Z,25.57
2018-11-05T08:54:39.885Z,27.90
2018-11-05T08:57:07.641Z,26.47
2018-11-05T08:59:36.055Z,21.40
2018-11-05T09:02:04.116Z,21.37
2018-11-05T09:04:31.850Z,21.70
2018-11-05T09:06:59.701Z,26.43
2018-11-05T09:09:27.473Z,27.70
2018-11-05T09:11:55.397Z,21.97
2018-11-05T09:14:23.200Z,23.53
2018-11-05T09:16:51.053Z,21.03
2018-11-05T09:19:18.932Z,23.13
2018-11-05T09:21:46.613Z,20.50
2018-11-05T09:24:14.620Z,24.53
2018-11-05T09:26:42.730Z,24.37
2018-11-05T09:29:10.502Z,19.40
2018-11-05T09:31:38.413Z,22.43
2018-11-05T09:34:06.039Z,17.87
2018-11-05T09:36:34.036Z,22.60
2018-11-05T09:39:01.871Z,22.57
2018-11-05T09:41:29.739Z,20.43
2018-11-05T09:43:57.927Z,25.17
2018-11-05T09:46:25.906Z,21.87
2018-11-05T09:48:53.616Z,25.00
2018-11-05T09:51:21.282Z,24.40
2018-11-05T09:53:49.063Z,19.90
2018-11-05T09:56:17.274Z,25.50
2018-11-05T09:58:44.962Z,19.60
2018-11-05T10:01:12.641Z,22.23
2018-11-05T10:03:45.885Z,20.33
2018-11-05T10:06:13.411Z,26.83
2018-11-05T10:08:41.196Z,23.27
2018-11-05T10:11:09.061Z,20.47
2018-11-05T10:13:36.829Z,22.40
2018-11-05T10:16:05.041Z,20.87
2018-11-05T10:18:32.769Z,21.57
2018-11-05T10:21:00.818Z,18.50
2018-11-05T10:23:28.746Z,22.30
2018-11-05T10:25:56.541Z,18.17
2018-11-05T10:28:24.326Z,18.67
2018-11-05T10:30:52.116Z,22.77
2018-11-05T10:33:19.829Z,23.67
2018-11-05T10:35:53.525Z,20.20
2018-11-05T10:38:22.102Z,19.80
2018-11-05T10:40:49.766Z,22.20
2018-11-05T10:43:17.416Z,23.87
2018-11-05T10:45:45.114Z,19.00
2018-11-05T10:48:13.116Z,17.07
2018-11-05T10:50:40.730Z,18.37
2018-11-05T10:53:08.457Z,18.40
2018-11-05T10:55:36.173Z,22.13
2018-11-05T10:58:03.923Z,17.47
2018-11-05T11:00:37.259Z,19.80
2018-11-05T11:03:10.561Z,17.87
2018-11-05T11:05:38.337Z,17.43
2018-11-05T11:08:06.081Z,19.60
2018-11-05T11:10:33.942Z,15.33
2018-11-05T11:13:01.635Z,12.70
2018-11-05T11:15:29.305Z,14.97
2018-11-05T11:17:57.365Z,13.80
2018-11-05T11:20:25.019Z,17.73
2018-11-05T11:22:52.736Z,16.67
2018-11-05T11:25:20.417Z,14.30
2018-11-05T11:27:49.077Z,15.60
2018-11-05T11:30:17.253Z,15.13
2018-11-05T11:32:46.698Z,14.83
2018-11-05T11:35:14.553Z,17.00
2018-11-05T11:37:42.324Z,15.33
2018-11-05T11:40:12.275Z,13.20
2018-11-05T11:42:40.866Z,14.50
2018-11-05T11:45:09.417Z,14.33
2018-11-05T11:47:37.100Z,15.70
2018-11-05T11:50:06.845Z,17.23
2018-11-05T11:52:34.585Z,15.07
2018-11-05T11:55:02.475Z,15.77
2018-11-05T11:57:30.191Z,14.70
2018-11-05T11:59:57.901Z,14.83
2018-11-05T12:02:25.674Z,16.00
2018-11-05T12:04:53.742Z,15.60
2018-11-05T12:07:21.489Z,13.60
2018-11-05T12:09:49.296Z,15.07
2018-11-05T12:12:17.102Z,13.53
2018-11-05T12:14:44.990Z,13.37
2018-11-05T12:17:12.601Z,14.43
2018-11-05T12:19:40.273Z,18.27
2018-11-05T12:22:08.142Z,15.30
2018-11-05T12:24:35.895Z,14.10
2018-11-05T12:27:04.384Z,13.83
2018-11-05T12:29:32.100Z,17.20
2018-11-05T12:31:59.763Z,14.10
2018-11-05T12:34:27.442Z,15.60
2018-11-05T12:36:55.077Z,15.07
2018-11-05T12:39:22.721Z,14.03
2018-11-05T12:41:50.522Z,11.30
2018-11-05T12:44:18.379Z,14.17
2018-11-05T12:46:46.224Z,17.37
2018-11-05T12:49:13.920Z,14.13
2018-11-05T12:51:41.619Z,15.10
2018-11-05T12:54:09.281Z,13.50
2018-11-05T12:56:36.925Z,13.43
2018-11-05T12:59:04.910Z,12.37
2018-11-05T13:01:32.543Z,13.73
2018-11-05T13:04:00.209Z,14.60
2018-11-05T13:06:27.868Z,13.37
2018-11-05T13:08:55.517Z,12.80
2018-11-05T13:11:23.393Z,13.13
2018-11-05T13:13:51.092Z,14.10
2018-11-05T13:16:18.827Z,14.87
2018-11-05T13:18:46.517Z,13.30
2018-11-05T13:21:14.173Z,12.20
2018-11-05T13:23:44.356Z,14.60
2018-11-05T13:26:12.473Z,14.10
2018-11-05T13:28:40.204Z,13.80
2018-11-05T13:31:07.989Z,13.83
2018-11-05T13:33:35.762Z,13.80
2018-11-05T13:36:03.746Z,14.20
2018-11-05T13:38:31.439Z,17.23
2018-11-05T13:40:59.054Z,13.60
2018-11-05T13:43:26.732Z,12.87
2018-11-05T13:45:55.080Z,12.30
2018-11-05T13:48:22.693Z,12.50
2018-11-05T13:50:49.889Z,13.40
2018-11-05T13:53:17.525Z,16.83
2018-11-05T13:55:45.151Z,15.03
2018-11-05T13:58:12.844Z,14.37
2018-11-05T14:00:40.577Z,22.70
2018-11-05T14:03:08.310Z,16.77
2018-11-05T14:05:35.984Z,13.07
2018-11-05T14:08:03.722Z,13.50
2018-11-05T14:10:31.430Z,14.03
2018-11-05T14:12:59.189Z,14.53
2018-11-05T14:15:26.880Z,14.40
2018-11-05T14:17:54.577Z,13.63
2018-11-05T14:20:22.216Z,12.37
2018-11-05T14:22:49.939Z,15.70
2018-11-05T14:25:18.742Z,16.40
2018-11-05T14:27:47.938Z,16.37
2018-11-05T14:30:15.618Z,18.43
2018-11-05T14:32:44.415Z,15.10
2018-11-05T14:35:12.124Z,17.30
2018-11-05T14:37:39.854Z,12.80
2018-11-05T14:40:09.349Z,14.47
2018-11-05T14:42:37.156Z,14.50
2018-11-05T14:45:06.967Z,14.00
2018-11-05T14:47:34.665Z,15.97
2018-11-05T14:50:02.383Z,15.67
2018-11-05T14:52:30.029Z,14.53
2018-11-05T14:54:57.710Z,13.93
2018-11-05T14:57:25.530Z,14.73
2018-11-05T14:59:53.334Z,13.87
2018-11-05T15:02:26.636Z,14.53
2018-11-05T15:04:54.286Z,15.77
2018-11-05T15:07:21.948Z,14.93
2018-11-05T15:09:49.613Z,16.33
2018-11-05T15:12:17.334Z,16.03
2018-11-05T15:14:45.006Z,14.50
2018-11-05T15:17:12.616Z,15.83
2018-11-05T15:19:40.757Z,17.00
2018-11-05T15:22:07.929Z,16.17
2018-11-05T15:24:35.584Z,17.53
2018-11-05T15:27:03.498Z,15.13
2018-11-05T15:29:34.860Z,18.40
2018-11-05T15:32:02.563Z,17.10
2018-11-05T15:34:30.290Z,15.40
2018-11-05T15:36:58.035Z,15.57
2018-11-05T15:39:25.680Z,16.13
2018-11-05T15:41:53.442Z,16.43
2018-11-05T15:44:21.366Z,18.50
2018-11-05T15:46:49.091Z,23.63
2018-11-05T15:49:16.825Z,16.60
2018-11-05T15:51:44.715Z,14.93
2018-11-05T15:54:12.253Z,19.40
2018-11-05T15:56:39.938Z,18.87
2018-11-05T15:59:07.623Z,23.13
2018-11-05T16:01:35.239Z,26.03
2018-11-05T16:04:02.938Z,37.30
2018-11-05T16:06:30.730Z,27.70
2018-11-05T16:08:58.423Z,22.80
2018-11-05T16:11:26.071Z,18.70
2018-11-05T16:13:53.825Z,24.80
2018-11-05T16:16:21.513Z,18.93
2018-11-05T16:18:49.379Z,22.80
2018-11-05T16:21:17.073Z,19.23
2018-11-05T16:23:44.774Z,19.70
2018-11-05T16:26:12.473Z,23.67
2018-11-05T16:28:40.413Z,23.40
2018-11-05T16:31:08.249Z,27.20
2018-11-05T16:33:36.054Z,27.33
2018-11-05T16:36:03.820Z,26.30
2018-11-05T16:38:31.585Z,21.93
2018-11-05T16:40:59.270Z,21.27
2018-11-05T16:43:27.089Z,19.80
2018-11-05T16:45:55.027Z,19.07
2018-11-05T16:48:23.037Z,24.83
2018-11-05T16:50:50.946Z,22.50
2018-11-05T16:53:18.770Z,23.50
2018-11-05T16:55:46.586Z,23.70
2018-11-05T16:58:14.400Z,22.17
2018-11-05T17:00:42.290Z,19.43
2018-11-05T17:03:10.002Z,18.00
2018-11-05T17:05:37.817Z,21.20
2018-11-05T17:08:05.466Z,19.80
2018-11-05T17:10:33.120Z,21.83
2018-11-05T17:13:00.815Z,24.00
2018-11-05T17:15:28.567Z,21.97
2018-11-05T17:17:56.344Z,19.20
2018-11-05T17:20:24.084Z,20.00
2018-11-05T17:22:51.734Z,20.10
2018-11-05T17:25:19.429Z,18.90
2018-11-05T17:27:47.609Z,17.80
2018-11-05T17:30:17.938Z,19.37
2018-11-05T17:32:45.937Z,22.80
2018-11-05T17:35:14.305Z,18.20
2018-11-05T17:37:42.341Z,21.43
2018-11-05T17:40:12.769Z,20.57
2018-11-05T17:42:40.721Z,18.00
2018-11-05T17:45:09.934Z,19.87
2018-11-05T17:47:37.967Z,25.27
2018-11-05T17:50:08.117Z,19.07
2018-11-05T17:52:35.745Z,21.93
2018-11-05T17:55:03.695Z,21.43
2018-11-05T17:57:31.323Z,18.80
2018-11-05T17:59:58.973Z,27.03
2018-11-05T18:02:26.702Z,28.63
2018-11-05T18:04:55.481Z,25.50
2018-11-05T18:07:23.698Z,27.07
2018-11-05T18:09:51.680Z,26.03
2018-11-05T18:12:19.334Z,29.07
2018-11-05T18:14:48.056Z,24.27
2018-11-05T18:17:15.694Z,27.33
2018-11-05T18:19:43.402Z,26.07
2018-11-05T18:22:11.128Z,23.47
2018-11-05T18:24:40.429Z,28.93
2018-11-05T18:27:08.223Z,27.00
2018-11-05T18:29:35.946Z,27.47
2018-11-05T18:32:03.801Z,29.03
2018-11-05T18:34:31.910Z,30.77
2018-11-05T18:36:59.686Z,29.47
2018-11-05T18:39:27.470Z,36.57
2018-11-05T18:42:03.184Z,36.53
2018-11-05T18:44:35.817Z,28.37
2018-11-05T18:47:03.589Z,34.60
2018-11-05T18:49:31.342Z,32.93
2018-11-05T18:51:59.466Z,29.80
2018-11-05T18:54:29.065Z,32.37
2018-11-05T18:56:57.228Z,30.23
2018-11-05T18:59:26.361Z,29.53
2018-11-05T19:01:55.238Z,34.07
2018-11-05T19:04:23.180Z,30.77
2018-11-05T19:06:51.821Z,34.47
2018-11-05T19:09:20.080Z,32.57
2018-11-05T19:11:48.641Z,32.57
2018-11-05T19:14:18.562Z,32.97
2018-11-05T19:16:46.652Z,36.40
2018-11-05T19:19:14.481Z,33.63
2018-11-05T19:21:42.423Z,30.00
2018-11-05T19:24:10.612Z,29.50
2018-11-05T19:26:38.510Z,27.10
2018-11-05T19:29:07.442Z,25.20
2018-11-05T19:31:35.425Z,24.80
2018-11-05T19:34:03.422Z,25.97
2018-11-05T19:36:31.230Z,25.83
2018-11-05T19:38:58.988Z,22.30
2018-11-05T19:41:26.679Z,28.27
2018-11-05T19:43:54.448Z,24.87
2018-11-05T19:46:22.255Z,28.70
2018-11-05T19:48:50.281Z,27.53
2018-11-05T19:51:17.974Z,27.60
2018-11-05T19:53:45.824Z,27.23
2018-11-05T19:56:13.862Z,33.20
2018-11-05T19:58:41.470Z,30.90
2018-11-05T20:01:11.064Z,35.63
2018-11-05T20:03:39.870Z,31.90
2018-11-05T20:06:10.032Z,30.67
2018-11-05T20:08:40.929Z,34.23
2018-11-05T20:11:08.912Z,33.87
2018-11-05T20:13:36.892Z,29.77
2018-11-05T20:16:04.832Z,29.93
2018-11-05T20:18:32.975Z,33.43
2018-11-05T20:21:00.554Z,32.77
2018-11-05T20:23:28.358Z,28.13
2018-11-05T20:25:56.139Z,28.77
2018-11-05T20:28:28.331Z,26.87
2018-11-05T20:30:56.175Z,29.33
2018-11-05T20:33:24.139Z,23.93
2018-11-05T20:35:51.712Z,24.70
2018-11-05T20:38:19.420Z,27.53
2018-11-05T20:40:47.283Z,32.27
2018-11-05T20:43:14.894Z,23.90
2018-11-05T20:45:42.597Z,23.30
2018-11-05T20:48:10.206Z,27.60
2018-11-05T20:50:37.919Z,25.60
2018-11-05T20:53:05.705Z,22.90
2018-11-05T20:55:33.368Z,25.53
2018-11-05T20:58:01.553Z,30.27
2018-11-05T21:00:29.165Z,27.40
2018-11-05T21:02:57.058Z,31.37
2018-11-05T21:05:24.865Z,28.77
2018-11-05T21:07:52.931Z,35.53
2018-11-05T21:10:20.630Z,32.23
2018-11-05T21:12:51.331Z,32.63
2018-11-05T21:15:20.545Z,29.83
2018-11-05T21:17:49.944Z,36.47
2018-11-05T21:20:18.395Z,29.77
2018-11-05T21:22:46.821Z,32.63
2018-11-05T21:25:14.461Z,30.60
2018-11-05T21:27:43.093Z,32.67
2018-11-05T21:30:16.909Z,31.17
2018-11-05T21:32:44.888Z,25.67
2018-11-05T21:35:13.987Z,30.10
2018-11-05T21:37:42.321Z,23.60
2018-11-05T21:40:11.151Z,25.47
2018-11-05T21:42:39.108Z,29.60
2018-11-05T21:45:08.499Z,23.17
2018-11-05T21:47:36.522Z,22.20
2018-11-05T21:50:06.245Z,23.60
2018-11-05T21:52:33.747Z,24.93
2018-11-05T21:55:01.492Z,23.80
2018-11-05T21:57:29.592Z,20.73
2018-11-05T21:59:57.463Z,24.53
2018-11-05T22:02:27.290Z,35.10
2018-11-05T22:04:55.378Z,28.43
2018-11-05T22:07:23.668Z,24.40
2018-11-05T22:09:51.421Z,26.77
2018-11-05T22:12:19.129Z,23.27
2018-11-05T22:14:46.921Z,27.17
2018-11-05T22:17:14.693Z,24.90
2018-11-05T22:19:42.901Z,29.80
2018-11-05T22:22:11.476Z,31.43
2018-11-05T22:24:40.993Z,29.90
2018-11-05T22:27:12.270Z,30.20
2018-11-05T22:29:39.960Z,32.90
2018-11-05T22:32:08.014Z,27.97
2018-11-05T22:34:38.667Z,34.63
2018-11-05T22:37:06.374Z,33.33
2018-11-05T22:39:34.073Z,27.00
2018-11-05T22:42:01.795Z,48.40
2018-11-05T22:44:29.656Z,39.67
2018-11-05T22:46:57.577Z,32.77
2018-11-05T22:49:25.712Z,32.40
2018-11-05T22:51:53.588Z,33.90
2018-11-05T22:54:21.564Z,29.73
2018-11-05T22:56:49.657Z,27.93
2018-11-05T22:59:17.408Z,34.07
2018-11-05T23:01:50.789Z,38.07
2018-11-05T23:04:18.943Z,33.43
2018-11-05T23:06:47.428Z,28.70
2018-11-05T23:09:15.355Z,30.67
2018-11-05T23:11:43.065Z,30.80
2018-11-05T23:14:11.362Z,33.30
2018-11-05T23:16:39.502Z,32.43
2018-11-05T23:19:07.231Z,29.17
2018-11-05T23:21:34.926Z,28.87
2018-11-05T23:24:02.745Z,28.33
2018-11-05T23:26:30.510Z,29.30
2018-11-05T23:28:58.505Z,32.10
2018-11-05T23:31:26.523Z,28.60
2018-11-05T23:33:54.758Z,27.60
2018-11-05T23:36:29.105Z,33.63
2018-11-05T23:38:57.309Z,41.30
2018-11-05T23:41:25.093Z,41.63
2018-11-05T23:43:53.043Z,48.40
2018-11-05T23:46:20.798Z,45.97
2018-11-05T23:48:48.458Z,41.43
2018-11-05T23:51:16.181Z,35.20
2018-11-05T23:53:43.881Z,34.77
2018-11-05T23:56:11.574Z,42.77
2018-11-05T23:58:39.285Z,39.97
